Aviation Digital Data Service (ADDS)

Output produced by METARs form (1329 UTC 23 January 2019)
found at http://www.aviationweather.gov/metar/data/
 
METAR text: LMML 231315Z 30011KT 9999 SCT032 12/06 Q1000 RESHRA NOSIG
Conditions at: LMML (LUQA/MALTA , MT) observed 1315 UTC 23 January 2019
Temperature: 12.0°C (54°F)
Dewpoint: 6.0°C (43°F) [RH = 67%]
Pressure (altimeter): 29.53 inches Hg (1000.0 mb)
Winds: from the WNW (300 degrees) at 13 MPH (11 knots; 5.7 m/s)
Visibility: 6 or more miles (10+ km)
Ceiling: at least 12,000 feet AGL
Clouds: scattered clouds at 3200 feet AGL
Weather: no significant weather observed at this time

METAR text: LMML 231245Z 30013KT 9999 SCT034 12/05 Q1000 NOSIG
Conditions at: LMML (LUQA/MALTA , MT) observed 1245 UTC 23 January 2019
Temperature: 12.0°C (54°F)
Dewpoint: 5.0°C (41°F) [RH = 62%]
Pressure (altimeter): 29.53 inches Hg (1000.0 mb)
Winds: from the WNW (300 degrees) at 15 MPH (13 knots; 6.7 m/s)
Visibility: 6 or more miles (10+ km)
Ceiling: at least 12,000 feet AGL
Clouds: scattered clouds at 3400 feet AGL
Weather: no significant weather observed at this time

METAR text: LMML 231215Z 31018KT 9999 SCT035 13/06 Q1001 NOSIG
Conditions at: LMML (LUQA/MALTA , MT) observed 1215 UTC 23 January 2019
Temperature: 13.0°C (55°F)
Dewpoint: 6.0°C (43°F) [RH = 62%]
Pressure (altimeter): 29.56 inches Hg (1001.0 mb)
Winds: from the NW (310 degrees) at 21 MPH (18 knots; 9.3 m/s)
Visibility: 6 or more miles (10+ km)
Ceiling: at least 12,000 feet AGL
Clouds: scattered clouds at 3500 feet AGL
Weather: no significant weather observed at this time

METAR text: LMML 231145Z 30013KT 9999 FEW030 12/06 Q1001 NOSIG
Conditions at: LMML (LUQA/MALTA , MT) observed 1145 UTC 23 January 2019
Temperature: 12.0°C (54°F)
Dewpoint: 6.0°C (43°F) [RH = 67%]
Pressure (altimeter): 29.56 inches Hg (1001.0 mb)
Winds: from the WNW (300 degrees) at 15 MPH (13 knots; 6.7 m/s)
Visibility: 6 or more miles (10+ km)
Ceiling: at least 12,000 feet AGL
Clouds: few clouds at 3000 feet AGL
Weather: no significant weather observed at this time

METAR text: LMML 231115Z 32013KT 9999 FEW028TCU 13/06 Q1001 NOSIG
Conditions at: LMML (LUQA/MALTA , MT) observed 1115 UTC 23 January 2019
Temperature: 13.0°C (55°F)
Dewpoint: 6.0°C (43°F) [RH = 62%]
Pressure (altimeter): 29.56 inches Hg (1001.0 mb)
Winds: from the NW (320 degrees) at 15 MPH (13 knots; 6.7 m/s)
Visibility: 6 or more miles (10+ km)
Ceiling: at least 12,000 feet AGL
Clouds: few clouds at 2800 feet AGL
Weather: no significant weather observed at this time

METAR text: LMML 231045Z 31018KT 9999 FEW025 13/06 Q1001 NOSIG
Conditions at: LMML (LUQA/MALTA , MT) observed 1045 UTC 23 January 2019
Temperature: 13.0°C (55°F)
Dewpoint: 6.0°C (43°F) [RH = 62%]
Pressure (altimeter): 29.56 inches Hg (1001.0 mb)
Winds: from the NW (310 degrees) at 21 MPH (18 knots; 9.3 m/s)
Visibility: 6 or more miles (10+ km)
Ceiling: at least 12,000 feet AGL
Clouds: few clouds at 2500 feet AGL
Weather: no significant weather observed at this time

METAR text: LMML 231015Z 32010KT 9999 FEW025TCU 12/08 Q1002 NOSIG
Conditions at: LMML (LUQA/MALTA , MT) observed 1015 UTC 23 January 2019
Temperature: 12.0°C (54°F)
Dewpoint: 8.0°C (46°F) [RH = 76%]
Pressure (altimeter): 29.59 inches Hg (1002.0 mb)
Winds: from the NW (320 degrees) at 12 MPH (10 knots; 5.1 m/s)
Visibility: 6 or more miles (10+ km)
Ceiling: at least 12,000 feet AGL
Clouds: few clouds at 2500 feet AGL
Weather: no significant weather observed at this time

METAR text: LMML 230945Z 33011KT 9999 -SHRA SCT023TCU 11/07 Q1002 NOSIG
Conditions at: LMML (LUQA/MALTA , MT) observed 0945 UTC 23 January 2019
Temperature: 11.0°C (52°F)
Dewpoint: 7.0°C (45°F) [RH = 76%]
Pressure (altimeter): 29.59 inches Hg (1002.0 mb)
Winds: from the NNW (330 degrees) at 13 MPH (11 knots; 5.7 m/s)
Visibility: 6 or more miles (10+ km)
Ceiling: at least 12,000 feet AGL
Clouds: scattered clouds at 2300 feet AGL
Weather: -SHRA  (light rain showers)

METAR text: LMML 230915Z 33006KT 9999 SCT030 11/07 Q1002 NOSIG
Conditions at: LMML (LUQA/MALTA , MT) observed 0915 UTC 23 January 2019
Temperature: 11.0°C (52°F)
Dewpoint: 7.0°C (45°F) [RH = 76%]
Pressure (altimeter): 29.59 inches Hg (1002.0 mb)
Winds: from the NNW (330 degrees) at 7 MPH (6 knots; 3.1 m/s)
Visibility: 6 or more miles (10+ km)
Ceiling: at least 12,000 feet AGL
Clouds: scattered clouds at 3000 feet AGL
Weather: no significant weather observed at this time

METAR text: LMML 230845Z 31006KT 9999 FEW028 10/07 Q1002 NOSIG
Conditions at: LMML (LUQA/MALTA , MT) observed 0845 UTC 23 January 2019
Temperature: 10.0°C (50°F)
Dewpoint: 7.0°C (45°F) [RH = 82%]
Pressure (altimeter): 29.59 inches Hg (1002.0 mb)
Winds: from the NW (310 degrees) at 7 MPH (6 knots; 3.1 m/s)
Visibility: 6 or more miles (10+ km)
Ceiling: at least 12,000 feet AGL
Clouds: few clouds at 2800 feet AGL
Weather: no significant weather observed at this time

METAR text: LMML 230815Z 33011KT 9999 FEW023TCU SCT040 11/08 Q1002 NOSIG
Conditions at: LMML (LUQA/MALTA , MT) observed 0815 UTC 23 January 2019
Temperature: 11.0°C (52°F)
Dewpoint: 8.0°C (46°F) [RH = 82%]
Pressure (altimeter): 29.59 inches Hg (1002.0 mb)
Winds: from the NNW (330 degrees) at 13 MPH (11 knots; 5.7 m/s)
Visibility: 6 or more miles (10+ km)
Ceiling: at least 12,000 feet AGL
Clouds: few clouds at 2300 feet AGL
scattered clouds at 4000 feet AGL
Weather: no significant weather observed at this time

METAR text: LMML 230745Z 33009KT 9999 FEW028 10/08 Q1002 NOSIG
Conditions at: LMML (LUQA/MALTA , MT) observed 0745 UTC 23 January 2019
Temperature: 10.0°C (50°F)
Dewpoint: 8.0°C (46°F) [RH = 87%]
Pressure (altimeter): 29.59 inches Hg (1002.0 mb)
Winds: from the NNW (330 degrees) at 10 MPH (9 knots; 4.6 m/s)
Visibility: 6 or more miles (10+ km)
Ceiling: at least 12,000 feet AGL
Clouds: few clouds at 2800 feet AGL
Weather: no significant weather observed at this time

METAR text: LMML 230715Z 33007KT 9999 FEW023 10/08 Q1002 RESHRA NOSIG
Conditions at: LMML (LUQA/MALTA , MT) observed 0715 UTC 23 January 2019
Temperature: 10.0°C (50°F)
Dewpoint: 8.0°C (46°F) [RH = 87%]
Pressure (altimeter): 29.59 inches Hg (1002.0 mb)
Winds: from the NNW (330 degrees) at 8 MPH (7 knots; 3.6 m/s)
Visibility: 6 or more miles (10+ km)
Ceiling: at least 12,000 feet AGL
Clouds: few clouds at 2300 feet AGL
Weather: no significant weather observed at this time

METAR text: LMML 230645Z 34012KT 9999 -RA FEW025 BKN038 10/07 Q1002 RESHRA NOSIG
Conditions at: LMML (LUQA/MALTA , MT) observed 0645 UTC 23 January 2019
Temperature: 10.0°C (50°F)
Dewpoint: 7.0°C (45°F) [RH = 82%]
Pressure (altimeter): 29.59 inches Hg (1002.0 mb)
Winds: from the NNW (340 degrees) at 14 MPH (12 knots; 6.2 m/s)
Visibility: 6 or more miles (10+ km)
Ceiling: 3800 feet AGL
Clouds: few clouds at 2500 feet AGL
broken clouds at 3800 feet AGL
Weather: -RA  (light rain)

METAR text: LMML 230615Z 32009KT 9999 FEW029 09/06 Q1002 NOSIG
Conditions at: LMML (LUQA/MALTA , MT) observed 0615 UTC 23 January 2019
Temperature: 9.0°C (48°F)
Dewpoint: 6.0°C (43°F) [RH = 81%]
Pressure (altimeter): 29.59 inches Hg (1002.0 mb)
Winds: from the NW (320 degrees) at 10 MPH (9 knots; 4.6 m/s)
Visibility: 6 or more miles (10+ km)
Ceiling: at least 12,000 feet AGL
Clouds: few clouds at 2900 feet AGL
Weather: no significant weather observed at this time

METAR text: LMML 230545Z 33007KT 9999 FEW022 09/07 Q1002 NOSIG
Conditions at: LMML (LUQA/MALTA , MT) observed 0545 UTC 23 January 2019
Temperature: 9.0°C (48°F)
Dewpoint: 7.0°C (45°F) [RH = 87%]
Pressure (altimeter): 29.59 inches Hg (1002.0 mb)
Winds: from the NNW (330 degrees) at 8 MPH (7 knots; 3.6 m/s)
Visibility: 6 or more miles (10+ km)
Ceiling: at least 12,000 feet AGL
Clouds: few clouds at 2200 feet AGL
Weather: no significant weather observed at this time

METAR text: LMML 230515Z 33009KT 9999 -RA SCT022 10/07 Q1002 NOSIG
Conditions at: LMML (LUQA/MALTA , MT) observed 0515 UTC 23 January 2019
Temperature: 10.0°C (50°F)
Dewpoint: 7.0°C (45°F) [RH = 82%]
Pressure (altimeter): 29.59 inches Hg (1002.0 mb)
Winds: from the NNW (330 degrees) at 10 MPH (9 knots; 4.6 m/s)
Visibility: 6 or more miles (10+ km)
Ceiling: at least 12,000 feet AGL
Clouds: scattered clouds at 2200 feet AGL
Weather: -RA  (light rain)

METAR text: LMML 230445Z 31006KT 9999 SCT029 SCT045 09/07 Q1002 NOSIG
Conditions at: LMML (LUQA/MALTA , MT) observed 0445 UTC 23 January 2019
Temperature: 9.0°C (48°F)
Dewpoint: 7.0°C (45°F) [RH = 87%]
Pressure (altimeter): 29.59 inches Hg (1002.0 mb)
Winds: from the NW (310 degrees) at 7 MPH (6 knots; 3.1 m/s)
Visibility: 6 or more miles (10+ km)
Ceiling: at least 12,000 feet AGL
Clouds: scattered clouds at 2900 feet AGL
scattered clouds at 4500 feet AGL
Weather: no significant weather observed at this time

METAR text: LMML 230415Z 31004KT 9999 FEW020 09/08 Q1003 NOSIG
Conditions at: LMML (LUQA/MALTA , MT) observed 0415 UTC 23 January 2019
Temperature: 9.0°C (48°F)
Dewpoint: 8.0°C (46°F) [RH = 93%]
Pressure (altimeter): 29.62 inches Hg (1003.0 mb)
Winds: from the NW (310 degrees) at 5 MPH (4 knots; 2.1 m/s)
Visibility: 6 or more miles (10+ km)
Ceiling: at least 12,000 feet AGL
Clouds: few clouds at 2000 feet AGL
Weather: no significant weather observed at this time

METAR text: LMML 230345Z 33004KT 9999 FEW027 SCT043 10/08 Q1003 NOSIG
Conditions at: LMML (LUQA/MALTA , MT) observed 0345 UTC 23 January 2019
Temperature: 10.0°C (50°F)
Dewpoint: 8.0°C (46°F) [RH = 87%]
Pressure (altimeter): 29.62 inches Hg (1003.0 mb)
Winds: from the NNW (330 degrees) at 5 MPH (4 knots; 2.1 m/s)
Visibility: 6 or more miles (10+ km)
Ceiling: at least 12,000 feet AGL
Clouds: few clouds at 2700 feet AGL
scattered clouds at 4300 feet AGL
Weather: no significant weather observed at this time

METAR text: LMML 230315Z 01005KT 9999 FEW021 BKN043 10/08 Q1003 NOSIG
Conditions at: LMML (LUQA/MALTA , MT) observed 0315 UTC 23 January 2019
Temperature: 10.0°C (50°F)
Dewpoint: 8.0°C (46°F) [RH = 87%]
Pressure (altimeter): 29.62 inches Hg (1003.0 mb)
Winds: from the N (10 degrees) at 6 MPH (5 knots; 2.6 m/s)
Visibility: 6 or more miles (10+ km)
Ceiling: 4300 feet AGL
Clouds: few clouds at 2100 feet AGL
broken clouds at 4300 feet AGL
Weather: no significant weather observed at this time

METAR text: LMML 230245Z VRB01KT 9999 SCT029 BKN040 10/08 Q1004 NOSIG
Conditions at: LMML (LUQA/MALTA , MT) observed 0245 UTC 23 January 2019
Temperature: 10.0°C (50°F)
Dewpoint: 8.0°C (46°F) [RH = 87%]
Pressure (altimeter): 29.65 inches Hg (1004.0 mb)
Winds: variable direction winds at 1 MPH (1 knots; 0.5 m/s)
Visibility: 6 or more miles (10+ km)
Ceiling: 4000 feet AGL
Clouds: scattered clouds at 2900 feet AGL
broken clouds at 4000 feet AGL
Weather: no significant weather observed at this time

METAR text: LMML 230215Z AUTO 35001KT 9999NDV OVC029/// 09/08 Q1004 NOSIG
Conditions at: LMML (LUQA/MALTA , MT) observed 0215 UTC 23 January 2019
Temperature: 9.0°C (48°F)
Dewpoint: 8.0°C (46°F) [RH = 93%]
Pressure (altimeter): 29.65 inches Hg (1004.0 mb)
Winds: from the N (350 degrees) at 1 MPH (1 knots; 0.5 m/s)
Visibility: missing
Ceiling: 2900 feet AGL
Clouds: overcast cloud deck at 2900 feet AGL
Weather: no significant weather observed at this time

METAR text: LMML 230145Z 30004KT 9999 -RA FEW015 BKN045 10/08 Q1005 NOSIG
Conditions at: LMML (LUQA/MALTA , MT) observed 0145 UTC 23 January 2019
Temperature: 10.0°C (50°F)
Dewpoint: 8.0°C (46°F) [RH = 87%]
Pressure (altimeter): 29.68 inches Hg (1005.0 mb)
Winds: from the WNW (300 degrees) at 5 MPH (4 knots; 2.1 m/s)
Visibility: 6 or more miles (10+ km)
Ceiling: 4500 feet AGL
Clouds: few clouds at 1500 feet AGL
broken clouds at 4500 feet AGL
Weather: -RA  (light rain)

METAR text: LMML 230115Z 26003KT 9999 FEW014 BKN041 10/08 Q1005 NOSIG
Conditions at: LMML (LUQA/MALTA , MT) observed 0115 UTC 23 January 2019
Temperature: 10.0°C (50°F)
Dewpoint: 8.0°C (46°F) [RH = 87%]
Pressure (altimeter): 29.68 inches Hg (1005.0 mb)
Winds: from the W (260 degrees) at 3 MPH (3 knots; 1.5 m/s)
Visibility: 6 or more miles (10+ km)
Ceiling: 4100 feet AGL
Clouds: few clouds at 1400 feet AGL
broken clouds at 4100 feet AGL
Weather: no significant weather observed at this time

METAR text: LMML 230045Z 24003KT 9999 FEW030 10/08 Q1006 NOSIG
Conditions at: LMML (LUQA/MALTA , MT) observed 0045 UTC 23 January 2019
Temperature: 10.0°C (50°F)
Dewpoint: 8.0°C (46°F) [RH = 87%]
Pressure (altimeter): 29.70 inches Hg (1006.0 mb)
Winds: from the WSW (240 degrees) at 3 MPH (3 knots; 1.5 m/s)
Visibility: 6 or more miles (10+ km)
Ceiling: at least 12,000 feet AGL
Clouds: few clouds at 3000 feet AGL
Weather: no significant weather observed at this time

METAR text: LMML 230015Z 22003KT 9999 FEW025 BKN045 10/08 Q1006 NOSIG
Conditions at: LMML (LUQA/MALTA , MT) observed 0015 UTC 23 January 2019
Temperature: 10.0°C (50°F)
Dewpoint: 8.0°C (46°F) [RH = 87%]
Pressure (altimeter): 29.70 inches Hg (1006.0 mb)
Winds: from the SW (220 degrees) at 3 MPH (3 knots; 1.5 m/s)
Visibility: 6 or more miles (10+ km)
Ceiling: 4500 feet AGL
Clouds: few clouds at 2500 feet AGL
broken clouds at 4500 feet AGL
Weather: no significant weather observed at this time

METAR text: LMML 222345Z 19005KT 9999 -RA FEW025 BKN046 10/08 Q1007 NOSIG
Conditions at: LMML (LUQA/MALTA , MT) observed 2345 UTC 22 January 2019
Temperature: 10.0°C (50°F)
Dewpoint: 8.0°C (46°F) [RH = 87%]
Pressure (altimeter): 29.73 inches Hg (1007.0 mb)
Winds: from the S (190 degrees) at 6 MPH (5 knots; 2.6 m/s)
Visibility: 6 or more miles (10+ km)
Ceiling: 4600 feet AGL
Clouds: few clouds at 2500 feet AGL
broken clouds at 4600 feet AGL
Weather: -RA  (light rain)

METAR text: LMML 222315Z 21004KT 9999 -RA FEW028 BKN040 10/08 Q1007 NOSIG
Conditions at: LMML (LUQA/MALTA , MT) observed 2315 UTC 22 January 2019
Temperature: 10.0°C (50°F)
Dewpoint: 8.0°C (46°F) [RH = 87%]
Pressure (altimeter): 29.73 inches Hg (1007.0 mb)
Winds: from the SSW (210 degrees) at 5 MPH (4 knots; 2.1 m/s)
Visibility: 6 or more miles (10+ km)
Ceiling: 4000 feet AGL
Clouds: few clouds at 2800 feet AGL
broken clouds at 4000 feet AGL
Weather: -RA  (light rain)

METAR text: LMML 222245Z 22004KT 9999 -RA FEW028 BKN043 10/08 Q1007 NOSIG
Conditions at: LMML (LUQA/MALTA , MT) observed 2245 UTC 22 January 2019
Temperature: 10.0°C (50°F)
Dewpoint: 8.0°C (46°F) [RH = 87%]
Pressure (altimeter): 29.73 inches Hg (1007.0 mb)
Winds: from the SW (220 degrees) at 5 MPH (4 knots; 2.1 m/s)
Visibility: 6 or more miles (10+ km)
Ceiling: 4300 feet AGL
Clouds: few clouds at 2800 feet AGL
broken clouds at 4300 feet AGL
Weather: -RA  (light rain)

METAR text: LMML 222215Z 18003KT 9999 -RA FEW029 BKN048 10/08 Q1008 NOSIG
Conditions at: LMML (LUQA/MALTA , MT) observed 2215 UTC 22 January 2019
Temperature: 10.0°C (50°F)
Dewpoint: 8.0°C (46°F) [RH = 87%]
Pressure (altimeter): 29.76 inches Hg (1008.0 mb)
Winds: from the S (180 degrees) at 3 MPH (3 knots; 1.5 m/s)
Visibility: 6 or more miles (10+ km)
Ceiling: 4800 feet AGL
Clouds: few clouds at 2900 feet AGL
broken clouds at 4800 feet AGL
Weather: -RA  (light rain)

METAR text: LMML 222145Z VRB02KT 9999 -RA FEW030TCU 09/07 Q1008 NOSIG
Conditions at: LMML (LUQA/MALTA , MT) observed 2145 UTC 22 January 2019
Temperature: 9.0°C (48°F)
Dewpoint: 7.0°C (45°F) [RH = 87%]
Pressure (altimeter): 29.76 inches Hg (1008.0 mb)
Winds: variable direction winds at 2 MPH (2 knots; 1.0 m/s)
Visibility: 6 or more miles (10+ km)
Ceiling: at least 12,000 feet AGL
Clouds: few clouds at 3000 feet AGL
Weather: -RA  (light rain)

METAR text: LMML 222115Z 33004KT 310V010 9999 -RA SCT023TCU 10/07 Q1008 NOSIG
Conditions at: LMML (LUQA/MALTA , MT) observed 2115 UTC 22 January 2019
Temperature: 10.0°C (50°F)
Dewpoint: 7.0°C (45°F) [RH = 82%]
Pressure (altimeter): 29.76 inches Hg (1008.0 mb)
Winds: from the NNW (330 degrees) at 5 MPH (4 knots; 2.1 m/s)
Visibility: 6 or more miles (10+ km)
Ceiling: at least 12,000 feet AGL
Clouds: scattered clouds at 2300 feet AGL
Weather: -RA  (light rain)

METAR text: LMML 222045Z 33003KT 9999 -RA FEW026TCU 11/08 Q1008 TEMPO 4000 TSRA BKN020CB
Conditions at: LMML (LUQA/MALTA , MT) observed 2045 UTC 22 January 2019
Temperature: 11.0°C (52°F)
Dewpoint: 8.0°C (46°F) [RH = 82%]
Pressure (altimeter): 29.76 inches Hg (1008.0 mb)
Winds: from the NNW (330 degrees) at 3 MPH (3 knots; 1.5 m/s)
Visibility: 6 or more miles (10+ km)
Ceiling: at least 12,000 feet AGL
Clouds: few clouds at 2600 feet AGL
Weather: -RA  (light rain)

METAR text: LMML 222015Z VRB02KT 9999 -RA SCT025TCU 11/07 Q1009 TEMPO 4000 TSRA BKN020CB
Conditions at: LMML (LUQA/MALTA , MT) observed 2015 UTC 22 January 2019
Temperature: 11.0°C (52°F)
Dewpoint: 7.0°C (45°F) [RH = 76%]
Pressure (altimeter): 29.79 inches Hg (1009.0 mb)
Winds: variable direction winds at 2 MPH (2 knots; 1.0 m/s)
Visibility: 6 or more miles (10+ km)
Ceiling: at least 12,000 feet AGL
Clouds: scattered clouds at 2500 feet AGL
Weather: -RA  (light rain)

METAR text: LMML 221945Z 18002KT 9999 SCT025CB 12/08 Q1009 TEMPO 4000 TSRA BKN020CB RMK LIGHTNING TO SW
Conditions at: LMML (LUQA/MALTA , MT) observed 1945 UTC 22 January 2019
Temperature: 12.0°C (54°F)
Dewpoint: 8.0°C (46°F) [RH = 76%]
Pressure (altimeter): 29.79 inches Hg (1009.0 mb)
Winds: from the S (180 degrees) at 2 MPH (2 knots; 1.0 m/s)
Visibility: 6 or more miles (10+ km)
Ceiling: at least 12,000 feet AGL
Clouds: scattered clouds at 2500 feet AGL
Weather: no significant weather observed at this time

METAR text: LMML 221915Z 28003KT 9999 FEW026 12/08 Q1009 NOSIG
Conditions at: LMML (LUQA/MALTA , MT) observed 1915 UTC 22 January 2019
Temperature: 12.0°C (54°F)
Dewpoint: 8.0°C (46°F) [RH = 76%]
Pressure (altimeter): 29.79 inches Hg (1009.0 mb)
Winds: from the W (280 degrees) at 3 MPH (3 knots; 1.5 m/s)
Visibility: 6 or more miles (10+ km)
Ceiling: at least 12,000 feet AGL
Clouds: few clouds at 2600 feet AGL
Weather: no significant weather observed at this time

METAR text: LMML 221845Z 27003KT 9999 FEW025TCU 12/08 Q1009 NOSIG
Conditions at: LMML (LUQA/MALTA , MT) observed 1845 UTC 22 January 2019
Temperature: 12.0°C (54°F)
Dewpoint: 8.0°C (46°F) [RH = 76%]
Pressure (altimeter): 29.79 inches Hg (1009.0 mb)
Winds: from the W (270 degrees) at 3 MPH (3 knots; 1.5 m/s)
Visibility: 6 or more miles (10+ km)
Ceiling: at least 12,000 feet AGL
Clouds: few clouds at 2500 feet AGL
Weather: no significant weather observed at this time

METAR text: LMML 221815Z 28004KT 9999 -SHRA SCT025TCU 12/08 Q1009 NOSIG
Conditions at: LMML (LUQA/MALTA , MT) observed 1815 UTC 22 January 2019
Temperature: 12.0°C (54°F)
Dewpoint: 8.0°C (46°F) [RH = 76%]
Pressure (altimeter): 29.79 inches Hg (1009.0 mb)
Winds: from the W (280 degrees) at 5 MPH (4 knots; 2.1 m/s)
Visibility: 6 or more miles (10+ km)
Ceiling: at least 12,000 feet AGL
Clouds: scattered clouds at 2500 feet AGL
Weather: -SHRA  (light rain showers)

METAR text: LMML 221745Z 26003KT 9999 FEW030TCU 12/09 Q1009 NOSIG
Conditions at: LMML (LUQA/MALTA , MT) observed 1745 UTC 22 January 2019
Temperature: 12.0°C (54°F)
Dewpoint: 9.0°C (48°F) [RH = 82%]
Pressure (altimeter): 29.79 inches Hg (1009.0 mb)
Winds: from the W (260 degrees) at 3 MPH (3 knots; 1.5 m/s)
Visibility: 6 or more miles (10+ km)
Ceiling: at least 12,000 feet AGL
Clouds: few clouds at 3000 feet AGL
Weather: no significant weather observed at this time

METAR text: LMML 221715Z 25002KT 9999 FEW025TCU 12/09 Q1009 NOSIG
Conditions at: LMML (LUQA/MALTA , MT) observed 1715 UTC 22 January 2019
Temperature: 12.0°C (54°F)
Dewpoint: 9.0°C (48°F) [RH = 82%]
Pressure (altimeter): 29.79 inches Hg (1009.0 mb)
Winds: from the WSW (250 degrees) at 2 MPH (2 knots; 1.0 m/s)
Visibility: 6 or more miles (10+ km)
Ceiling: at least 12,000 feet AGL
Clouds: few clouds at 2500 feet AGL
Weather: no significant weather observed at this time

METAR text: LMML 221645Z 24002KT 9999 FEW030TCU 12/09 Q1009 NOSIG
Conditions at: LMML (LUQA/MALTA , MT) observed 1645 UTC 22 January 2019
Temperature: 12.0°C (54°F)
Dewpoint: 9.0°C (48°F) [RH = 82%]
Pressure (altimeter): 29.79 inches Hg (1009.0 mb)
Winds: from the WSW (240 degrees) at 2 MPH (2 knots; 1.0 m/s)
Visibility: 6 or more miles (10+ km)
Ceiling: at least 12,000 feet AGL
Clouds: few clouds at 3000 feet AGL
Weather: no significant weather observed at this time

METAR text: LMML 221615Z 31004KT 9999 FEW020TCU 12/09 Q1009 NOSIG
Conditions at: LMML (LUQA/MALTA , MT) observed 1615 UTC 22 January 2019
Temperature: 12.0°C (54°F)
Dewpoint: 9.0°C (48°F) [RH = 82%]
Pressure (altimeter): 29.79 inches Hg (1009.0 mb)
Winds: from the NW (310 degrees) at 5 MPH (4 knots; 2.1 m/s)
Visibility: 6 or more miles (10+ km)
Ceiling: at least 12,000 feet AGL
Clouds: few clouds at 2000 feet AGL
Weather: no significant weather observed at this time

METAR text: LMML 221545Z 34005KT 9999 FEW019TCU 12/09 Q1009 NOSIG
Conditions at: LMML (LUQA/MALTA , MT) observed 1545 UTC 22 January 2019
Temperature: 12.0°C (54°F)
Dewpoint: 9.0°C (48°F) [RH = 82%]
Pressure (altimeter): 29.79 inches Hg (1009.0 mb)
Winds: from the NNW (340 degrees) at 6 MPH (5 knots; 2.6 m/s)
Visibility: 6 or more miles (10+ km)
Ceiling: at least 12,000 feet AGL
Clouds: few clouds at 1900 feet AGL
Weather: no significant weather observed at this time

METAR text: LMML 221515Z 32006KT 290V350 9999 FEW023TCU 13/09 Q1009 NOSIG
Conditions at: LMML (LUQA/MALTA , MT) observed 1515 UTC 22 January 2019
Temperature: 13.0°C (55°F)
Dewpoint: 9.0°C (48°F) [RH = 77%]
Pressure (altimeter): 29.79 inches Hg (1009.0 mb)
Winds: from the NW (320 degrees) at 7 MPH (6 knots; 3.1 m/s)
Visibility: 6 or more miles (10+ km)
Ceiling: at least 12,000 feet AGL
Clouds: few clouds at 2300 feet AGL
Weather: no significant weather observed at this time

METAR text: LMML 221445Z 33009KT 9999 FEW021TCU SCT027 14/08 Q1009 NOSIG
Conditions at: LMML (LUQA/MALTA , MT) observed 1445 UTC 22 January 2019
Temperature: 14.0°C (57°F)
Dewpoint: 8.0°C (46°F) [RH = 67%]
Pressure (altimeter): 29.79 inches Hg (1009.0 mb)
Winds: from the NNW (330 degrees) at 10 MPH (9 knots; 4.6 m/s)
Visibility: 6 or more miles (10+ km)
Ceiling: at least 12,000 feet AGL
Clouds: few clouds at 2100 feet AGL
scattered clouds at 2700 feet AGL
Weather: no significant weather observed at this time

METAR text: LMML 221415Z 29012KT 9999 FEW025TCU SCT030 15/09 Q1010 NOSIG
Conditions at: LMML (LUQA/MALTA , MT) observed 1415 UTC 22 January 2019
Temperature: 15.0°C (59°F)
Dewpoint: 9.0°C (48°F) [RH = 67%]
Pressure (altimeter): 29.82 inches Hg (1010.0 mb)
Winds: from the WNW (290 degrees) at 14 MPH (12 knots; 6.2 m/s)
Visibility: 6 or more miles (10+ km)
Ceiling: at least 12,000 feet AGL
Clouds: few clouds at 2500 feet AGL
scattered clouds at 3000 feet AGL
Weather: no significant weather observed at this time

METAR text: LMML 221345Z 30011KT 9999 FEW022TCU SCT026 14/08 Q1010 NOSIG
Conditions at: LMML (LUQA/MALTA , MT) observed 1345 UTC 22 January 2019
Temperature: 14.0°C (57°F)
Dewpoint: 8.0°C (46°F) [RH = 67%]
Pressure (altimeter): 29.82 inches Hg (1010.0 mb)
Winds: from the WNW (300 degrees) at 13 MPH (11 knots; 5.7 m/s)
Visibility: 6 or more miles (10+ km)
Ceiling: at least 12,000 feet AGL
Clouds: few clouds at 2200 feet AGL
scattered clouds at 2600 feet AGL
Weather: no significant weather observed at this time

METAR text: LMML 221315Z 27012KT 9999 FEW022TCU SCT025 14/08 Q1010 NOSIG
Conditions at: LMML (LUQA/MALTA , MT) observed 1315 UTC 22 January 2019
Temperature: 14.0°C (57°F)
Dewpoint: 8.0°C (46°F) [RH = 67%]
Pressure (altimeter): 29.82 inches Hg (1010.0 mb)
Winds: from the W (270 degrees) at 14 MPH (12 knots; 6.2 m/s)
Visibility: 6 or more miles (10+ km)
Ceiling: at least 12,000 feet AGL
Clouds: few clouds at 2200 feet AGL
scattered clouds at 2500 feet AGL
Weather: no significant weather observed at this time

METAR text: LMML 221245Z 28012KT 9999 FEW023TCU SCT030 15/09 Q1010 NOSIG
Conditions at: LMML (LUQA/MALTA , MT) observed 1245 UTC 22 January 2019
Temperature: 15.0°C (59°F)
Dewpoint: 9.0°C (48°F) [RH = 67%]
Pressure (altimeter): 29.82 inches Hg (1010.0 mb)
Winds: from the W (280 degrees) at 14 MPH (12 knots; 6.2 m/s)
Visibility: 6 or more miles (10+ km)
Ceiling: at least 12,000 feet AGL
Clouds: few clouds at 2300 feet AGL
scattered clouds at 3000 feet AGL
Weather: no significant weather observed at this time

METAR text: LMML 221215Z 31013KT 9999 FEW028TCU 15/08 Q1011 NOSIG
Conditions at: LMML (LUQA/MALTA , MT) observed 1215 UTC 22 January 2019
Temperature: 15.0°C (59°F)
Dewpoint: 8.0°C (46°F) [RH = 63%]
Pressure (altimeter): 29.85 inches Hg (1011.0 mb)
Winds: from the NW (310 degrees) at 15 MPH (13 knots; 6.7 m/s)
Visibility: 6 or more miles (10+ km)
Ceiling: at least 12,000 feet AGL
Clouds: few clouds at 2800 feet AGL
Weather: no significant weather observed at this time

METAR text: LMML 221145Z 30011KT 9999 FEW027TCU 15/08 Q1011 NOSIG
Conditions at: LMML (LUQA/MALTA , MT) observed 1145 UTC 22 January 2019
Temperature: 15.0°C (59°F)
Dewpoint: 8.0°C (46°F) [RH = 63%]
Pressure (altimeter): 29.85 inches Hg (1011.0 mb)
Winds: from the WNW (300 degrees) at 13 MPH (11 knots; 5.7 m/s)
Visibility: 6 or more miles (10+ km)
Ceiling: at least 12,000 feet AGL
Clouds: few clouds at 2700 feet AGL
Weather: no significant weather observed at this time

METAR text: LMML 221115Z 30012KT 9999 FEW027TCU 15/08 Q1011 NOSIG
Conditions at: LMML (LUQA/MALTA , MT) observed 1115 UTC 22 January 2019
Temperature: 15.0°C (59°F)
Dewpoint: 8.0°C (46°F) [RH = 63%]
Pressure (altimeter): 29.85 inches Hg (1011.0 mb)
Winds: from the WNW (300 degrees) at 14 MPH (12 knots; 6.2 m/s)
Visibility: 6 or more miles (10+ km)
Ceiling: at least 12,000 feet AGL
Clouds: few clouds at 2700 feet AGL
Weather: no significant weather observed at this time

METAR text: LMML 221045Z 32014KT 9999 FEW027TCU SCT032 15/09 Q1012 NOSIG
Conditions at: LMML (LUQA/MALTA , MT) observed 1045 UTC 22 January 2019
Temperature: 15.0°C (59°F)
Dewpoint: 9.0°C (48°F) [RH = 67%]
Pressure (altimeter): 29.88 inches Hg (1012.0 mb)
Winds: from the NW (320 degrees) at 16 MPH (14 knots; 7.2 m/s)
Visibility: 6 or more miles (10+ km)
Ceiling: at least 12,000 feet AGL
Clouds: few clouds at 2700 feet AGL
scattered clouds at 3200 feet AGL
Weather: no significant weather observed at this time

METAR text: LMML 221015Z 31011KT 9999 SCT029TCU 15/08 Q1012 NOSIG
Conditions at: LMML (LUQA/MALTA , MT) observed 1015 UTC 22 January 2019
Temperature: 15.0°C (59°F)
Dewpoint: 8.0°C (46°F) [RH = 63%]
Pressure (altimeter): 29.88 inches Hg (1012.0 mb)
Winds: from the NW (310 degrees) at 13 MPH (11 knots; 5.7 m/s)
Visibility: 6 or more miles (10+ km)
Ceiling: at least 12,000 feet AGL
Clouds: scattered clouds at 2900 feet AGL
Weather: no significant weather observed at this time

METAR text: LMML 220945Z 31013KT 9999 SCT023 14/10 Q1012 NOSIG
Conditions at: LMML (LUQA/MALTA , MT) observed 0945 UTC 22 January 2019
Temperature: 14.0°C (57°F)
Dewpoint: 10.0°C (50°F) [RH = 77%]
Pressure (altimeter): 29.88 inches Hg (1012.0 mb)
Winds: from the NW (310 degrees) at 15 MPH (13 knots; 6.7 m/s)
Visibility: 6 or more miles (10+ km)
Ceiling: at least 12,000 feet AGL
Clouds: scattered clouds at 2300 feet AGL
Weather: no significant weather observed at this time

METAR text: LMML 220915Z 30010KT 9999 SCT025 14/09 Q1011 NOSIG
Conditions at: LMML (LUQA/MALTA , MT) observed 0915 UTC 22 January 2019
Temperature: 14.0°C (57°F)
Dewpoint: 9.0°C (48°F) [RH = 72%]
Pressure (altimeter): 29.85 inches Hg (1011.0 mb)
Winds: from the WNW (300 degrees) at 12 MPH (10 knots; 5.1 m/s)
Visibility: 6 or more miles (10+ km)
Ceiling: at least 12,000 feet AGL
Clouds: scattered clouds at 2500 feet AGL
Weather: no significant weather observed at this time

METAR text: LMML 220845Z 30012KT 9999 SCT039 14/10 Q1011 NOSIG
Conditions at: LMML (LUQA/MALTA , MT) observed 0845 UTC 22 January 2019
Temperature: 14.0°C (57°F)
Dewpoint: 10.0°C (50°F) [RH = 77%]
Pressure (altimeter): 29.85 inches Hg (1011.0 mb)
Winds: from the WNW (300 degrees) at 14 MPH (12 knots; 6.2 m/s)
Visibility: 6 or more miles (10+ km)
Ceiling: at least 12,000 feet AGL
Clouds: scattered clouds at 3900 feet AGL
Weather: no significant weather observed at this time

METAR text: LMML 220815Z 30009KT 9999 SCT023 14/10 Q1011 NOSIG
Conditions at: LMML (LUQA/MALTA , MT) observed 0815 UTC 22 January 2019
Temperature: 14.0°C (57°F)
Dewpoint: 10.0°C (50°F) [RH = 77%]
Pressure (altimeter): 29.85 inches Hg (1011.0 mb)
Winds: from the WNW (300 degrees) at 10 MPH (9 knots; 4.6 m/s)
Visibility: 6 or more miles (10+ km)
Ceiling: at least 12,000 feet AGL
Clouds: scattered clouds at 2300 feet AGL
Weather: no significant weather observed at this time

METAR text: LMML 220745Z 30006KT 9999 SCT025 13/09 Q1011 NOSIG
Conditions at: LMML (LUQA/MALTA , MT) observed 0745 UTC 22 January 2019
Temperature: 13.0°C (55°F)
Dewpoint: 9.0°C (48°F) [RH = 77%]
Pressure (altimeter): 29.85 inches Hg (1011.0 mb)
Winds: from the WNW (300 degrees) at 7 MPH (6 knots; 3.1 m/s)
Visibility: 6 or more miles (10+ km)
Ceiling: at least 12,000 feet AGL
Clouds: scattered clouds at 2500 feet AGL
Weather: no significant weather observed at this time

METAR text: LMML 220715Z 30006KT 9999 SCT030 12/09 Q1010 NOSIG
Conditions at: LMML (LUQA/MALTA , MT) observed 0715 UTC 22 January 2019
Temperature: 12.0°C (54°F)
Dewpoint: 9.0°C (48°F) [RH = 82%]
Pressure (altimeter): 29.82 inches Hg (1010.0 mb)
Winds: from the WNW (300 degrees) at 7 MPH (6 knots; 3.1 m/s)
Visibility: 6 or more miles (10+ km)
Ceiling: at least 12,000 feet AGL
Clouds: scattered clouds at 3000 feet AGL
Weather: no significant weather observed at this time

METAR text: LMML 220645Z 30006KT 9999 SCT030TCU 11/09 Q1010 NOSIG
Conditions at: LMML (LUQA/MALTA , MT) observed 0645 UTC 22 January 2019
Temperature: 11.0°C (52°F)
Dewpoint: 9.0°C (48°F) [RH = 87%]
Pressure (altimeter): 29.82 inches Hg (1010.0 mb)
Winds: from the WNW (300 degrees) at 7 MPH (6 knots; 3.1 m/s)
Visibility: 6 or more miles (10+ km)
Ceiling: at least 12,000 feet AGL
Clouds: scattered clouds at 3000 feet AGL
Weather: no significant weather observed at this time

METAR text: LMML 220615Z 31009KT 9999 SCT024 12/09 Q1010 NOSIG
Conditions at: LMML (LUQA/MALTA , MT) observed 0615 UTC 22 January 2019
Temperature: 12.0°C (54°F)
Dewpoint: 9.0°C (48°F) [RH = 82%]
Pressure (altimeter): 29.82 inches Hg (1010.0 mb)
Winds: from the NW (310 degrees) at 10 MPH (9 knots; 4.6 m/s)
Visibility: 6 or more miles (10+ km)
Ceiling: at least 12,000 feet AGL
Clouds: scattered clouds at 2400 feet AGL
Weather: no significant weather observed at this time

METAR text: LMML 220545Z 30009KT 9999 FEW024 12/10 Q1010 NOSIG
Conditions at: LMML (LUQA/MALTA , MT) observed 0545 UTC 22 January 2019
Temperature: 12.0°C (54°F)
Dewpoint: 10.0°C (50°F) [RH = 88%]
Pressure (altimeter): 29.82 inches Hg (1010.0 mb)
Winds: from the WNW (300 degrees) at 10 MPH (9 knots; 4.6 m/s)
Visibility: 6 or more miles (10+ km)
Ceiling: at least 12,000 feet AGL
Clouds: few clouds at 2400 feet AGL
Weather: no significant weather observed at this time

METAR text: LMML 220515Z 31007KT 9999 SCT022 12/10 Q1010 NOSIG
Conditions at: LMML (LUQA/MALTA , MT) observed 0515 UTC 22 January 2019
Temperature: 12.0°C (54°F)
Dewpoint: 10.0°C (50°F) [RH = 88%]
Pressure (altimeter): 29.82 inches Hg (1010.0 mb)
Winds: from the NW (310 degrees) at 8 MPH (7 knots; 3.6 m/s)
Visibility: 6 or more miles (10+ km)
Ceiling: at least 12,000 feet AGL
Clouds: scattered clouds at 2200 feet AGL
Weather: no significant weather observed at this time

METAR text: LMML 220445Z 31004KT 9999 FEW019 11/10 Q1009 NOSIG
Conditions at: LMML (LUQA/MALTA , MT) observed 0445 UTC 22 January 2019
Temperature: 11.0°C (52°F)
Dewpoint: 10.0°C (50°F) [RH = 94%]
Pressure (altimeter): 29.79 inches Hg (1009.0 mb)
Winds: from the NW (310 degrees) at 5 MPH (4 knots; 2.1 m/s)
Visibility: 6 or more miles (10+ km)
Ceiling: at least 12,000 feet AGL
Clouds: few clouds at 1900 feet AGL
Weather: no significant weather observed at this time

METAR text: LMML 220415Z 32004KT 9999 FEW014 11/09 Q1009 NOSIG
Conditions at: LMML (LUQA/MALTA , MT) observed 0415 UTC 22 January 2019
Temperature: 11.0°C (52°F)
Dewpoint: 9.0°C (48°F) [RH = 87%]
Pressure (altimeter): 29.79 inches Hg (1009.0 mb)
Winds: from the NW (320 degrees) at 5 MPH (4 knots; 2.1 m/s)
Visibility: 6 or more miles (10+ km)
Ceiling: at least 12,000 feet AGL
Clouds: few clouds at 1400 feet AGL
Weather: no significant weather observed at this time

METAR text: LMML 220345Z 32005KT 9999 FEW014 11/09 Q1009 NOSIG
Conditions at: LMML (LUQA/MALTA , MT) observed 0345 UTC 22 January 2019
Temperature: 11.0°C (52°F)
Dewpoint: 9.0°C (48°F) [RH = 87%]
Pressure (altimeter): 29.79 inches Hg (1009.0 mb)
Winds: from the NW (320 degrees) at 6 MPH (5 knots; 2.6 m/s)
Visibility: 6 or more miles (10+ km)
Ceiling: at least 12,000 feet AGL
Clouds: few clouds at 1400 feet AGL
Weather: no significant weather observed at this time

METAR text: LMML 220315Z 32006KT 9999 FEW014 12/11 Q1009 NOSIG
Conditions at: LMML (LUQA/MALTA , MT) observed 0315 UTC 22 January 2019
Temperature: 12.0°C (54°F)
Dewpoint: 11.0°C (52°F) [RH = 94%]
Pressure (altimeter): 29.79 inches Hg (1009.0 mb)
Winds: from the NW (320 degrees) at 7 MPH (6 knots; 3.1 m/s)
Visibility: 6 or more miles (10+ km)
Ceiling: at least 12,000 feet AGL
Clouds: few clouds at 1400 feet AGL
Weather: no significant weather observed at this time

METAR text: LMML 220245Z 29007KT 9999 FEW019 13/11 Q1009 NOSIG
Conditions at: LMML (LUQA/MALTA , MT) observed 0245 UTC 22 January 2019
Temperature: 13.0°C (55°F)
Dewpoint: 11.0°C (52°F) [RH = 88%]
Pressure (altimeter): 29.79 inches Hg (1009.0 mb)
Winds: from the WNW (290 degrees) at 8 MPH (7 knots; 3.6 m/s)
Visibility: 6 or more miles (10+ km)
Ceiling: at least 12,000 feet AGL
Clouds: few clouds at 1900 feet AGL
Weather: no significant weather observed at this time

METAR text: LMML 220215Z 30007KT 9999 FEW028 13/12 Q1009 NOSIG
Conditions at: LMML (LUQA/MALTA , MT) observed 0215 UTC 22 January 2019
Temperature: 13.0°C (55°F)
Dewpoint: 12.0°C (54°F) [RH = 94%]
Pressure (altimeter): 29.79 inches Hg (1009.0 mb)
Winds: from the WNW (300 degrees) at 8 MPH (7 knots; 3.6 m/s)
Visibility: 6 or more miles (10+ km)
Ceiling: at least 12,000 feet AGL
Clouds: few clouds at 2800 feet AGL
Weather: no significant weather observed at this time

METAR text: LMML 220145Z 27007KT 9999 FEW013 14/12 Q1009 NOSIG
Conditions at: LMML (LUQA/MALTA , MT) observed 0145 UTC 22 January 2019
Temperature: 14.0°C (57°F)
Dewpoint: 12.0°C (54°F) [RH = 88%]
Pressure (altimeter): 29.79 inches Hg (1009.0 mb)
Winds: from the W (270 degrees) at 8 MPH (7 knots; 3.6 m/s)
Visibility: 6 or more miles (10+ km)
Ceiling: at least 12,000 feet AGL
Clouds: few clouds at 1300 feet AGL
Weather: no significant weather observed at this time

Forecast for: LMML (LUQA/MALTA , MT)
Text: TAF LMML 231100Z 2312/2412 30013KT 9999 FEW020TCU SCT025
Forecast period: 1200 to 2000 UTC 23 January 2019
Forecast type: FROM: standard forecast or significant change
Winds: from the WNW (300 degrees) at 15 MPH (13 knots; 6.7 m/s)
Visibility: 6 or more miles 10+ km)
Ceiling: at least 12,000 feet AGL
Clouds: few clouds at 2000 feet AGL
scattered clouds at 2500 feet AGL
Weather: no significant weather forecast for this period
Text: TEMPO 2312/2412 7000 SHRA BKN018TCU
Forecast period: 1200 UTC 23 January 2019 to 1200 UTC 24 January 2019
Forecast type: TEMPORARY: The following changes expected for less than half the time period
Visibility: 4 miles (7 km)
Ceiling: 1800 feet AGL
Clouds: broken clouds at 1800 feet AGL
Weather: SHRA  (rain showers)
Text: PROB40
Forecast period: 1800 UTC 23 January 2019 to 1200 UTC 24 January 2019
Forecast type: TEMPORARY: The following changes expected for less than half the time period
Winds: variable direction winds at 29 MPH (25 knots; 12.9 m/s)
gusting to 44 MPH (38 knots; 19.5 m/s)
Visibility: 1.86 miles (2.99 km)
Ceiling: 1400 feet AGL
Clouds: broken clouds at 1400 feet AGL
Weather: TSRA TSRA TSGS  (rain associated with thunderstorm(s), rain associated with thunderstorm(s), small hail or graupel associated with thunderstorm(s))
Text: TEMPO 2318/2412 3000 VRB25G38KT TSRA TSRAGS BKN014CB
Forecast period: 2000 UTC 23 January 2019 to 0800 UTC 24 January 2019
Forecast type: BECOMING: Conditions expected to become as follows by 2300 UTC 23 January 2019
Winds: from the WSW (240 degrees) at 21 MPH (18 knots; 9.3 m/s)
Visibility: 6 or more miles 10+ km)
Ceiling: at least 12,000 feet AGL
Clouds: few clouds at 2000 feet AGL
scattered clouds at 2500 feet AGL
Weather: no significant weather forecast for this period
Text: BECMG 2320/2323 24018KT
Forecast period: 0800 to 1200 UTC 24 January 2019
Forecast type: BECOMING: Conditions expected to become as follows by 1100 UTC 24 January 2019
Winds: from the WNW (290 degrees) at 25 MPH (22 knots; 11.3 m/s)
gusting to 37 MPH (32 knots; 16.5 m/s)
Visibility: 6 or more miles 10+ km)
Ceiling: at least 12,000 feet AGL
Clouds: few clouds at 2000 feet AGL
scattered clouds at 2500 feet AGL
Weather: no significant weather forecast for this period